createdAt,value
2018-07-03T00:00:53.778Z,19.88
2018-07-03T00:01:53.770Z,19.86
2018-07-03T00:02:53.767Z,19.80
2018-07-03T00:03:53.748Z,19.78
2018-07-03T00:04:53.778Z,19.86
2018-07-03T00:05:53.750Z,19.83
2018-07-03T00:06:53.730Z,19.84
2018-07-03T00:07:53.760Z,19.74
2018-07-03T00:08:53.710Z,19.78
2018-07-03T00:09:53.710Z,19.77
2018-07-03T00:10:53.722Z,19.73
2018-07-03T00:11:53.730Z,19.77
2018-07-03T00:12:53.684Z,19.80
2018-07-03T00:13:53.723Z,19.73
2018-07-03T00:14:53.674Z,19.74
2018-07-03T00:15:53.681Z,19.66
2018-07-03T00:16:53.702Z,19.81
2018-07-03T00:17:54.452Z,19.71
2018-07-03T00:18:53.659Z,19.68
2018-07-03T00:19:53.639Z,19.62
2018-07-03T00:20:53.631Z,19.68
2018-07-03T00:21:53.657Z,19.56
2018-07-03T00:22:53.635Z,19.63
2018-07-03T00:23:53.637Z,19.65
2018-07-03T00:24:53.600Z,19.65
2018-07-03T00:25:53.595Z,19.59
2018-07-03T00:26:53.581Z,19.56
2018-07-03T00:27:53.568Z,19.63
2018-07-03T00:28:53.602Z,19.47
2018-07-03T00:29:53.563Z,19.47
2018-07-03T00:30:53.556Z,19.37
2018-07-03T00:31:53.546Z,19.41
2018-07-03T00:32:53.543Z,19.31
2018-07-03T00:33:53.574Z,19.25
2018-07-03T00:34:53.543Z,19.23
2018-07-03T00:35:53.525Z,19.22
2018-07-03T00:36:53.509Z,19.18
2018-07-03T00:37:53.507Z,19.04
2018-07-03T00:38:53.497Z,19.04
2018-07-03T00:39:53.530Z,19.07
2018-07-03T00:40:53.480Z,19.02
2018-07-03T00:41:53.476Z,18.92
2018-07-03T00:42:53.462Z,18.94
2018-07-03T00:43:53.473Z,18.91
2018-07-03T00:44:53.482Z,18.81
2018-07-03T00:45:53.465Z,18.84
2018-07-03T00:46:53.437Z,18.76
2018-07-03T00:47:53.428Z,18.81
2018-07-03T00:48:53.430Z,18.69
2018-07-03T00:49:53.489Z,18.72
2018-07-03T00:50:53.420Z,18.72
2018-07-03T00:51:53.400Z,18.78
2018-07-03T00:52:53.385Z,18.67
2018-07-03T00:53:53.397Z,18.66
2018-07-03T00:54:53.382Z,18.78
2018-07-03T00:55:53.383Z,18.69
2018-07-03T00:56:53.356Z,18.75
2018-07-03T00:57:53.341Z,18.73
2018-07-03T00:58:53.352Z,18.75
2018-07-03T00:59:53.333Z,18.72
2018-07-03T01:00:53.362Z,18.70
2018-07-03T01:01:53.313Z,18.70
2018-07-03T01:02:53.353Z,18.57
2018-07-03T01:03:53.301Z,18.62
2018-07-03T01:04:53.302Z,18.41
2018-07-03T01:05:53.287Z,18.32
2018-07-03T01:06:53.312Z,18.37
2018-07-03T01:07:53.279Z,18.23
2018-07-03T01:08:53.262Z,18.08
2018-07-03T01:09:53.262Z,18.00
2018-07-03T01:10:53.246Z,17.95
2018-07-03T01:11:53.273Z,17.86
2018-07-03T01:12:53.242Z,17.81
2018-07-03T01:13:53.251Z,17.68
2018-07-03T01:14:53.217Z,17.71
2018-07-03T01:15:53.210Z,17.71
2018-07-03T01:16:53.233Z,17.64
2018-07-03T01:17:53.196Z,17.64
2018-07-03T01:18:53.215Z,17.68
2018-07-03T01:19:53.180Z,17.70
2018-07-03T01:20:53.228Z,17.66
2018-07-03T01:21:53.148Z,17.59
2018-07-03T01:22:53.160Z,17.59
2018-07-03T01:23:53.140Z,17.44
2018-07-03T01:24:53.136Z,17.49
2018-07-03T01:25:53.129Z,17.48
2018-07-03T01:26:53.249Z,17.46
2018-07-03T01:27:53.112Z,17.46
2018-07-03T01:28:53.096Z,17.36
2018-07-03T01:29:53.089Z,17.41
2018-07-03T01:30:53.087Z,17.51
2018-07-03T01:31:53.075Z,17.46
2018-07-03T01:32:53.101Z,17.48
2018-07-03T01:33:53.060Z,17.48
2018-07-03T01:34:53.052Z,17.43
2018-07-03T01:35:53.040Z,17.28
2018-07-03T01:36:53.022Z,17.33
2018-07-03T01:37:53.025Z,17.18
2018-07-03T01:38:53.051Z,17.12
2018-07-03T01:39:53.005Z,17.16
2018-07-03T01:40:53.001Z,17.04
2018-07-03T01:41:52.986Z,17.01
2018-07-03T01:42:52.995Z,16.94
2018-07-03T01:43:52.969Z,16.83
2018-07-03T01:44:52.950Z,16.71
2018-07-03T01:45:52.952Z,16.68
2018-07-03T01:46:52.935Z,16.58
2018-07-03T01:47:53.067Z,16.57
2018-07-03T01:48:52.931Z,16.49
2018-07-03T01:49:52.917Z,16.53
2018-07-03T01:50:52.917Z,16.53
2018-07-03T01:51:52.900Z,16.56
2018-07-03T01:52:52.895Z,16.57
2018-07-03T01:53:52.909Z,16.56
2018-07-03T01:54:52.903Z,16.66
2018-07-03T01:55:52.856Z,16.56
2018-07-03T01:56:52.857Z,16.63
2018-07-03T01:57:52.844Z,16.52
2018-07-03T01:58:52.859Z,16.70
2018-07-03T01:59:53.125Z,16.66
2018-07-03T02:00:52.820Z,16.66
2018-07-03T02:01:52.808Z,16.64
2018-07-03T02:02:52.802Z,16.64
2018-07-03T02:03:52.789Z,16.60
2018-07-03T02:04:52.786Z,16.56
2018-07-03T02:05:52.782Z,16.50
2018-07-03T02:06:52.756Z,16.30
2018-07-03T02:07:52.751Z,16.30
2018-07-03T02:08:52.741Z,16.35
2018-07-03T02:09:52.732Z,16.33
2018-07-03T02:10:52.750Z,16.31
2018-07-03T02:11:52.719Z,16.34
2018-07-03T02:12:52.698Z,16.27
2018-07-03T02:13:52.701Z,16.23
2018-07-03T02:14:52.698Z,16.24
2018-07-03T02:15:52.835Z,16.21
2018-07-03T02:16:52.684Z,16.11
2018-07-03T02:17:52.666Z,16.08
2018-07-03T02:18:52.657Z,16.11
2018-07-03T02:19:52.645Z,16.09
2018-07-03T02:20:52.631Z,16.05
2018-07-03T02:21:53.036Z,15.97
2018-07-03T02:22:52.622Z,16.01
2018-07-03T02:23:52.601Z,16.02
2018-07-03T02:24:52.588Z,15.97
2018-07-03T02:25:52.590Z,16.01
2018-07-03T02:26:52.611Z,16.00
2018-07-03T02:27:52.742Z,15.94
2018-07-03T02:28:52.594Z,15.96
2018-07-03T02:29:52.603Z,16.05
2018-07-03T02:30:52.537Z,16.12
2018-07-03T02:31:52.524Z,16.17
2018-07-03T02:32:52.701Z,16.14
2018-07-03T02:33:52.687Z,16.31
2018-07-03T02:34:52.533Z,16.27
2018-07-03T02:35:52.482Z,16.34
2018-07-03T02:36:52.488Z,16.34
2018-07-03T02:37:52.471Z,16.28
2018-07-03T02:38:52.456Z,16.34
2018-07-03T02:39:52.459Z,16.33
2018-07-03T02:40:52.445Z,16.28
2018-07-03T02:41:52.435Z,16.14
2018-07-03T02:42:52.428Z,15.96
2018-07-03T02:43:52.444Z,15.76
2018-07-03T02:44:52.408Z,15.74
2018-07-03T02:45:52.395Z,15.67
2018-07-03T02:46:52.390Z,15.65
2018-07-03T02:47:52.379Z,15.56
2018-07-03T02:48:52.367Z,15.50
2018-07-03T02:49:52.362Z,15.54
2018-07-03T02:50:52.346Z,15.64
2018-07-03T02:51:52.340Z,15.60
2018-07-03T02:52:52.330Z,15.62
2018-07-03T02:53:52.322Z,15.65
2018-07-03T02:54:52.310Z,15.64
2018-07-03T02:55:52.310Z,15.59
2018-07-03T02:56:52.277Z,15.60
2018-07-03T02:57:52.277Z,15.71
2018-07-03T02:58:52.280Z,15.78
2018-07-03T02:59:52.305Z,15.71
2018-07-03T03:00:52.286Z,15.74
2018-07-03T03:01:52.237Z,15.76
2018-07-03T03:02:52.221Z,15.75
2018-07-03T03:03:52.214Z,15.75
2018-07-03T03:04:52.212Z,15.74
2018-07-03T03:05:52.227Z,15.71
2018-07-03T03:06:52.194Z,15.76
2018-07-03T03:07:52.197Z,15.69
2018-07-03T03:08:52.159Z,15.69
2018-07-03T03:09:52.154Z,15.59
2018-07-03T03:10:52.181Z,15.65
2018-07-03T03:11:52.141Z,15.56
2018-07-03T03:12:52.123Z,15.49
2018-07-03T03:13:52.130Z,15.39
2018-07-03T03:14:52.112Z,15.34
2018-07-03T03:15:52.549Z,15.36
2018-07-03T03:16:52.080Z,15.41
2018-07-03T03:17:52.075Z,15.36
2018-07-03T03:18:52.081Z,15.39
2018-07-03T03:19:52.060Z,15.50
2018-07-03T03:20:52.060Z,15.46
2018-07-03T03:21:52.045Z,15.36
2018-07-03T03:22:52.058Z,15.38
2018-07-03T03:23:52.012Z,15.32
2018-07-03T03:24:52.006Z,15.32
2018-07-03T03:25:52.007Z,15.38
2018-07-03T03:26:52.014Z,15.35
2018-07-03T03:27:51.989Z,15.34
2018-07-03T03:28:51.966Z,15.25
2018-07-03T03:29:51.953Z,15.27
2018-07-03T03:30:51.948Z,15.27
2018-07-03T03:31:51.938Z,15.31
2018-07-03T03:32:51.926Z,15.31
2018-07-03T03:33:51.910Z,15.34
2018-07-03T03:34:51.917Z,15.32
2018-07-03T03:35:51.904Z,15.32
2018-07-03T03:36:51.886Z,15.34
2018-07-03T03:37:51.900Z,15.31
2018-07-03T03:38:52.111Z,15.23
2018-07-03T03:39:51.865Z,15.20
2018-07-03T03:40:51.851Z,15.17
2018-07-03T03:41:52.057Z,15.19
2018-07-03T03:42:51.843Z,15.23
2018-07-03T03:43:51.820Z,15.14
2018-07-03T03:44:51.805Z,15.19
2018-07-03T03:45:51.797Z,15.19
2018-07-03T03:46:51.790Z,15.19
2018-07-03T03:47:51.799Z,15.21
2018-07-03T03:48:51.760Z,15.20
2018-07-03T03:49:51.753Z,15.19
2018-07-03T03:50:51.737Z,15.32
2018-07-03T03:51:51.744Z,15.21
2018-07-03T03:52:51.758Z,15.29
2018-07-03T03:53:51.802Z,15.34
2018-07-03T03:54:51.711Z,15.31
2018-07-03T03:55:51.697Z,15.34
2018-07-03T03:56:51.678Z,15.31
2018-07-03T03:57:51.717Z,15.31
2018-07-03T03:58:51.666Z,15.34
2018-07-03T03:59:51.662Z,15.32
2018-07-03T04:00:51.679Z,15.32
2018-07-03T04:01:51.633Z,15.29
2018-07-03T04:02:51.627Z,15.34
2018-07-03T04:03:51.616Z,15.39
2018-07-03T04:04:52.050Z,15.31
2018-07-03T04:05:51.596Z,15.35
2018-07-03T04:06:51.586Z,15.25
2018-07-03T04:07:51.572Z,15.34
2018-07-03T04:08:51.562Z,15.28
2018-07-03T04:09:51.553Z,15.20
2018-07-03T04:10:51.904Z,15.23
2018-07-03T04:11:51.537Z,15.17
2018-07-03T04:12:51.517Z,15.25
2018-07-03T04:13:51.518Z,15.21
2018-07-03T04:14:51.509Z,15.16
2018-07-03T04:15:51.503Z,15.21
2018-07-03T04:16:51.497Z,15.25
2018-07-03T04:17:51.479Z,15.17
2018-07-03T04:18:51.458Z,15.27
2018-07-03T04:19:51.445Z,15.21
2018-07-03T04:20:51.430Z,15.19
2018-07-03T04:21:51.434Z,15.29
2018-07-03T04:22:51.420Z,15.28
2018-07-03T04:23:51.408Z,15.29
2018-07-03T04:24:51.397Z,15.34
2018-07-03T04:25:51.609Z,15.38
2018-07-03T04:26:51.372Z,15.38
2018-07-03T04:27:51.365Z,15.39
2018-07-03T04:28:51.358Z,15.38
2018-07-03T04:29:51.357Z,15.38
2018-07-03T04:30:51.333Z,15.38
2018-07-03T04:31:51.351Z,15.44
2018-07-03T04:32:51.314Z,15.39
2018-07-03T04:33:51.299Z,15.44
2018-07-03T04:34:51.290Z,15.51
2018-07-03T04:35:51.292Z,15.57
2018-07-03T04:36:51.279Z,15.59
2018-07-03T04:37:51.282Z,15.53
2018-07-03T04:38:51.258Z,15.50
2018-07-03T04:39:51.248Z,15.44
2018-07-03T04:40:51.222Z,15.49
2018-07-03T04:41:51.227Z,15.49
2018-07-03T04:42:51.209Z,15.51
2018-07-03T04:43:51.204Z,15.50
2018-07-03T04:44:51.183Z,15.44
2018-07-03T04:45:51.173Z,15.49
2018-07-03T04:46:51.359Z,15.50
2018-07-03T04:47:51.161Z,15.51
2018-07-03T04:48:51.147Z,15.47
2018-07-03T04:49:51.145Z,15.50
2018-07-03T04:50:51.128Z,15.51
2018-07-03T04:51:51.120Z,15.59
2018-07-03T04:52:51.132Z,15.53
2018-07-03T04:53:51.102Z,15.57
2018-07-03T04:54:51.092Z,15.60
2018-07-03T04:55:51.082Z,15.67
2018-07-03T04:56:51.062Z,15.67
2018-07-03T04:57:51.100Z,15.74
2018-07-03T04:58:51.086Z,15.67
2018-07-03T04:59:51.048Z,15.72
2018-07-03T05:00:51.035Z,15.76
2018-07-03T05:01:51.022Z,15.76
2018-07-03T05:02:51.054Z,15.83
2018-07-03T05:03:51.011Z,15.82
2018-07-03T05:04:50.994Z,15.83
2018-07-03T05:05:50.993Z,15.82
2018-07-03T05:06:50.971Z,15.84
2018-07-03T05:07:50.992Z,15.87
2018-07-03T05:08:50.962Z,15.86
2018-07-03T05:09:50.943Z,15.89
2018-07-03T05:10:50.944Z,15.90
2018-07-03T05:11:50.923Z,15.90
2018-07-03T05:12:50.918Z,15.93
2018-07-03T05:13:50.912Z,16.02
2018-07-03T05:14:50.892Z,15.97
2018-07-03T05:15:50.884Z,16.08
2018-07-03T05:16:50.869Z,16.09
2018-07-03T05:17:50.920Z,16.07
2018-07-03T05:18:50.854Z,16.07
2018-07-03T05:19:50.841Z,16.14
2018-07-03T05:20:50.835Z,16.15
2018-07-03T05:21:50.824Z,16.15
2018-07-03T05:22:50.827Z,16.23
2018-07-03T05:23:50.808Z,16.20
2018-07-03T05:24:50.790Z,16.23
2018-07-03T05:25:50.799Z,16.21
2018-07-03T05:26:50.819Z,16.28
2018-07-03T05:27:50.766Z,16.25
2018-07-03T05:28:50.758Z,16.33
2018-07-03T05:29:50.750Z,16.31
2018-07-03T05:30:50.769Z,16.34
2018-07-03T05:31:50.723Z,16.38
2018-07-03T05:32:50.725Z,16.38
2018-07-03T05:33:50.710Z,16.39
2018-07-03T05:34:50.733Z,16.49
2018-07-03T05:35:50.699Z,16.43
2018-07-03T05:36:50.672Z,16.50
2018-07-03T05:37:50.708Z,16.57
2018-07-03T05:38:50.659Z,16.60
2018-07-03T05:39:50.651Z,16.56
2018-07-03T05:40:50.636Z,16.68
2018-07-03T05:41:50.657Z,16.67
2018-07-03T05:42:50.618Z,16.73
2018-07-03T05:43:50.616Z,16.53
2018-07-03T05:44:50.600Z,16.56
2018-07-03T05:45:50.627Z,16.60
2018-07-03T05:46:50.590Z,16.52
2018-07-03T05:47:50.581Z,16.53
2018-07-03T05:48:50.562Z,16.61
2018-07-03T05:49:50.621Z,16.68
2018-07-03T05:50:50.550Z,16.71
2018-07-03T05:51:50.537Z,16.73
2018-07-03T05:52:50.524Z,16.73
2018-07-03T05:53:50.522Z,16.82
2018-07-03T05:54:50.517Z,16.78
2018-07-03T05:55:50.540Z,16.78
2018-07-03T05:56:50.498Z,16.83
2018-07-03T05:57:50.554Z,16.85
2018-07-03T05:58:50.478Z,16.83
2018-07-03T05:59:50.599Z,16.86
2018-07-03T06:00:50.465Z,16.88
2018-07-03T06:01:50.447Z,16.96
2018-07-03T06:02:50.446Z,16.93
2018-07-03T06:03:50.475Z,17.11
2018-07-03T06:04:50.425Z,17.04
2018-07-03T06:05:50.421Z,17.04
2018-07-03T06:06:50.408Z,17.14
2018-07-03T06:07:50.395Z,17.15
2018-07-03T06:08:50.387Z,17.15
2018-07-03T06:09:50.381Z,17.21
2018-07-03T06:10:50.393Z,17.31
2018-07-03T06:11:50.354Z,17.36
2018-07-03T06:12:50.372Z,17.38
2018-07-03T06:13:50.369Z,17.49
2018-07-03T06:14:50.391Z,17.46
2018-07-03T06:15:50.316Z,17.49
2018-07-03T06:16:50.322Z,17.41
2018-07-03T06:17:50.304Z,17.52
2018-07-03T06:18:50.307Z,17.48
2018-07-03T06:19:50.324Z,17.64
2018-07-03T06:20:50.283Z,17.51
2018-07-03T06:21:50.268Z,17.59
2018-07-03T06:22:50.285Z,17.66
2018-07-03T06:23:50.251Z,17.77
2018-07-03T06:24:50.278Z,17.70
2018-07-03T06:25:50.237Z,17.77
2018-07-03T06:26:50.220Z,17.82
2018-07-03T06:27:50.221Z,17.79
2018-07-03T06:28:50.234Z,17.82
2018-07-03T06:29:50.236Z,17.90
2018-07-03T06:30:50.255Z,17.90
2018-07-03T06:31:50.192Z,17.99
2018-07-03T06:32:50.185Z,17.97
2018-07-03T06:33:50.168Z,18.03
2018-07-03T06:34:50.168Z,18.05
2018-07-03T06:35:50.165Z,18.07
2018-07-03T06:36:50.184Z,18.08
2018-07-03T06:37:50.173Z,18.08
2018-07-03T06:38:50.132Z,18.11
2018-07-03T06:39:50.116Z,18.21
2018-07-03T06:40:50.112Z,18.21
2018-07-03T06:41:50.108Z,18.23
2018-07-03T06:42:50.132Z,18.29
2018-07-03T06:43:50.083Z,18.23
2018-07-03T06:44:50.162Z,18.26
2018-07-03T06:45:50.074Z,18.35
2018-07-03T06:46:50.061Z,18.23
2018-07-03T06:47:50.064Z,18.35
2018-07-03T06:48:50.321Z,18.33
2018-07-03T06:49:50.073Z,18.36
2018-07-03T06:50:50.029Z,18.47
2018-07-03T06:51:50.055Z,18.39
2018-07-03T06:52:50.105Z,18.48
2018-07-03T06:53:50.006Z,18.44
2018-07-03T06:54:49.997Z,18.45
2018-07-03T06:55:49.995Z,18.47
2018-07-03T06:56:49.977Z,18.52
2018-07-03T06:57:50.104Z,18.58
2018-07-03T06:58:49.980Z,18.65
2018-07-03T06:59:49.950Z,18.67
2018-07-03T07:00:49.946Z,18.70
2018-07-03T07:01:49.952Z,18.73
2018-07-03T07:02:49.940Z,18.82
2018-07-03T07:03:49.936Z,18.80
2018-07-03T07:04:49.918Z,18.78
2018-07-03T07:05:49.924Z,18.81
2018-07-03T07:06:49.911Z,18.80
2018-07-03T07:07:49.903Z,18.84
2018-07-03T07:08:50.035Z,18.95
2018-07-03T07:09:49.889Z,18.92
2018-07-03T07:10:49.870Z,18.91
2018-07-03T07:11:49.870Z,18.88
2018-07-03T07:12:49.864Z,18.91
2018-07-03T07:13:49.851Z,18.94
2018-07-03T07:14:49.855Z,18.94
2018-07-03T07:15:49.833Z,19.04
2018-07-03T07:16:49.831Z,19.06
2018-07-03T07:17:49.862Z,19.11
2018-07-03T07:18:49.931Z,18.94
2018-07-03T07:19:49.862Z,19.06
2018-07-03T07:20:49.800Z,19.04
2018-07-03T07:21:49.798Z,19.08
2018-07-03T07:22:49.783Z,19.22
2018-07-03T07:23:49.779Z,19.16
2018-07-03T07:24:49.770Z,19.25
2018-07-03T07:25:49.771Z,19.22
2018-07-03T07:26:49.754Z,19.37
2018-07-03T07:27:49.743Z,19.41
2018-07-03T07:28:49.749Z,19.39
2018-07-03T07:29:49.772Z,19.44
2018-07-03T07:30:49.733Z,19.54
2018-07-03T07:31:49.718Z,19.50
2018-07-03T07:32:49.715Z,19.48
2018-07-03T07:33:49.706Z,19.62
2018-07-03T07:34:49.738Z,19.63
2018-07-03T07:35:49.707Z,19.63
2018-07-03T07:36:49.688Z,19.58
2018-07-03T07:37:49.680Z,19.71
2018-07-03T07:38:49.703Z,19.71
2018-07-03T07:39:49.670Z,19.76
2018-07-03T07:40:49.650Z,19.66
2018-07-03T07:41:49.645Z,19.77
2018-07-03T07:42:49.705Z,19.80
2018-07-03T07:43:49.630Z,19.76
2018-07-03T07:44:49.616Z,19.78
2018-07-03T07:45:49.625Z,19.94
2018-07-03T07:46:49.612Z,19.84
2018-07-03T07:47:49.648Z,19.91
2018-07-03T07:48:49.877Z,19.98
2018-07-03T07:49:49.602Z,19.91
2018-07-03T07:50:49.580Z,19.94
2018-07-03T07:51:49.585Z,19.99
2018-07-03T07:52:49.576Z,20.03
2018-07-03T07:53:49.567Z,20.14
2018-07-03T07:54:49.594Z,20.11
2018-07-03T07:55:49.565Z,20.13
2018-07-03T07:56:49.549Z,20.17
2018-07-03T07:57:49.721Z,20.11
2018-07-03T07:58:49.528Z,20.33
2018-07-03T07:59:49.665Z,20.24
2018-07-03T08:00:49.541Z,20.32
2018-07-03T08:01:49.520Z,20.43
2018-07-03T08:02:49.510Z,20.38
2018-07-03T08:03:49.507Z,20.33
2018-07-03T08:04:49.526Z,20.41
2018-07-03T08:05:49.495Z,20.48
2018-07-03T08:06:49.511Z,20.39
2018-07-03T08:07:49.476Z,20.52
2018-07-03T08:08:49.474Z,20.61
2018-07-03T08:09:49.466Z,20.59
2018-07-03T08:10:49.494Z,20.61
2018-07-03T08:11:49.451Z,20.58
2018-07-03T08:12:49.452Z,20.70
2018-07-03T08:13:49.443Z,20.66
2018-07-03T08:14:49.440Z,20.70
2018-07-03T08:15:49.426Z,20.72
2018-07-03T08:16:49.427Z,20.89
2018-07-03T08:17:49.420Z,20.85
2018-07-03T08:18:49.409Z,20.91
2018-07-03T08:19:49.535Z,21.01
2018-07-03T08:20:49.390Z,20.99
2018-07-03T08:21:49.388Z,20.99
2018-07-03T08:22:49.381Z,20.97
2018-07-03T08:23:49.379Z,20.97
2018-07-03T08:24:49.370Z,21.07
2018-07-03T08:25:49.418Z,21.12
2018-07-03T08:26:49.352Z,21.17
2018-07-03T08:27:49.350Z,21.24
2018-07-03T08:28:49.635Z,21.27
2018-07-03T08:29:50.135Z,21.35
2018-07-03T08:30:49.423Z,21.40
2018-07-03T08:31:49.468Z,21.44
2018-07-03T08:32:49.432Z,21.49
2018-07-03T08:33:49.330Z,21.67
2018-07-03T08:34:49.319Z,21.64
2018-07-03T08:35:49.300Z,21.88
2018-07-03T08:36:49.446Z,21.96
2018-07-03T08:37:49.499Z,22.12
2018-07-03T08:38:49.298Z,22.28
2018-07-03T08:39:49.337Z,22.30
2018-07-03T08:40:49.279Z,22.46
2018-07-03T08:41:49.291Z,22.61
2018-07-03T08:42:49.314Z,22.60
2018-07-03T08:43:49.259Z,22.61
2018-07-03T08:44:49.304Z,22.52
2018-07-03T08:45:49.256Z,22.51
2018-07-03T08:46:49.263Z,22.62
2018-07-03T08:47:49.248Z,22.68
2018-07-03T08:48:49.256Z,22.86
2018-07-03T08:49:49.253Z,23.13
2018-07-03T08:50:49.246Z,23.39
2018-07-03T08:51:49.274Z,23.66
2018-07-03T08:52:49.252Z,23.88
2018-07-03T08:53:49.248Z,24.16
2018-07-03T08:54:49.277Z,24.62
2018-07-03T08:55:49.238Z,24.88
2018-07-03T08:56:49.229Z,25.28
2018-07-03T08:57:49.242Z,25.42
2018-07-03T08:58:49.246Z,25.42
2018-07-03T08:59:49.308Z,25.77
2018-07-03T09:00:49.261Z,26.17
2018-07-03T09:01:49.592Z,26.54
2018-07-03T09:02:49.239Z,26.81
2018-07-03T09:03:49.287Z,27.21
2018-07-03T09:04:49.243Z,27.69
2018-07-03T09:05:51.148Z,28.12
2018-07-03T09:06:49.277Z,28.54
2018-07-03T09:07:49.254Z,28.80
2018-07-03T09:08:49.246Z,29.00
2018-07-03T09:09:49.254Z,29.11
2018-07-03T09:10:49.265Z,29.51
2018-07-03T09:11:49.262Z,29.86
2018-07-03T09:12:49.295Z,29.92
2018-07-03T09:13:49.289Z,29.98
2018-07-03T09:14:49.277Z,30.22
2018-07-03T09:15:49.266Z,30.46
2018-07-03T09:16:49.272Z,30.60
2018-07-03T09:17:49.671Z,30.39
2018-07-03T09:18:49.284Z,30.55
2018-07-03T09:19:49.289Z,30.64
2018-07-03T09:20:49.295Z,30.64
2018-07-03T09:21:49.309Z,30.77
2018-07-03T09:22:49.305Z,30.92
2018-07-03T09:23:49.344Z,31.20
2018-07-03T09:24:49.309Z,31.44
2018-07-03T09:25:49.323Z,31.85
2018-07-03T09:26:49.323Z,31.88
2018-07-03T09:27:49.341Z,31.57
2018-07-03T09:28:49.391Z,31.62
2018-07-03T09:29:49.353Z,31.75
2018-07-03T09:30:49.354Z,31.78
2018-07-03T09:31:49.357Z,31.56
2018-07-03T09:32:49.359Z,31.47
2018-07-03T09:33:49.373Z,31.57
2018-07-03T09:34:49.387Z,31.81
2018-07-03T09:35:49.382Z,32.14
2018-07-03T09:36:49.393Z,32.13
2018-07-03T09:37:49.421Z,32.18
2018-07-03T09:38:49.423Z,32.06
2018-07-03T09:39:49.413Z,31.89
2018-07-03T09:40:49.414Z,31.75
2018-07-03T09:41:49.419Z,32.00
2018-07-03T09:42:49.428Z,32.22
2018-07-03T09:43:49.469Z,32.47
2018-07-03T09:44:49.449Z,32.84
2018-07-03T09:45:49.459Z,32.93
2018-07-03T09:46:49.460Z,32.93
2018-07-03T09:47:49.470Z,32.81
2018-07-03T09:48:49.528Z,32.45
2018-07-03T09:49:49.512Z,32.18
2018-07-03T09:50:49.515Z,31.89
2018-07-03T09:51:49.515Z,31.54
2018-07-03T09:52:49.509Z,31.43
2018-07-03T09:53:49.510Z,31.66
2018-07-03T09:54:49.562Z,31.72
2018-07-03T09:55:49.515Z,31.46
2018-07-03T09:56:49.524Z,31.19
2018-07-03T09:57:49.576Z,31.06
2018-07-03T09:58:49.528Z,31.14
2018-07-03T09:59:49.730Z,31.57
2018-07-03T10:00:49.546Z,32.25
2018-07-03T10:01:49.548Z,32.63
2018-07-03T10:02:49.580Z,32.89
2018-07-03T10:03:49.562Z,32.94
2018-07-03T10:04:49.617Z,32.97
2018-07-03T10:05:49.580Z,33.29
2018-07-03T10:06:49.601Z,33.60
2018-07-03T10:07:49.740Z,33.82
2018-07-03T10:08:49.606Z,33.81
2018-07-03T10:09:49.598Z,33.73
2018-07-03T10:10:49.622Z,33.47
2018-07-03T10:11:49.634Z,33.45
2018-07-03T10:12:49.628Z,33.41
2018-07-03T10:13:49.996Z,33.65
2018-07-03T10:14:49.648Z,33.68
2018-07-03T10:15:49.643Z,33.44
2018-07-03T10:16:49.660Z,33.07
2018-07-03T10:17:49.657Z,32.84
2018-07-03T10:18:49.690Z,32.92
2018-07-03T10:19:49.685Z,32.96
2018-07-03T10:20:49.685Z,33.06
2018-07-03T10:21:49.694Z,33.03
2018-07-03T10:22:49.702Z,32.97
2018-07-03T10:23:49.736Z,33.07
2018-07-03T10:24:49.783Z,32.97
2018-07-03T10:25:49.724Z,32.92
2018-07-03T10:26:49.729Z,33.00
2018-07-03T10:27:49.786Z,33.12
2018-07-03T10:28:49.767Z,33.11
2018-07-03T10:29:49.769Z,32.94
2018-07-03T10:30:49.842Z,32.78
2018-07-03T10:31:49.767Z,32.84
2018-07-03T10:32:49.773Z,32.89
2018-07-03T10:33:49.785Z,32.97
2018-07-03T10:34:49.787Z,33.21
2018-07-03T10:35:49.785Z,33.47
2018-07-03T10:36:49.801Z,33.75
2018-07-03T10:37:49.796Z,34.02
2018-07-03T10:38:49.812Z,34.10
2018-07-03T10:39:49.815Z,34.00
2018-07-03T10:40:49.830Z,33.90
2018-07-03T10:41:50.255Z,33.82
2018-07-03T10:42:49.853Z,33.91
2018-07-03T10:43:49.844Z,33.88
2018-07-03T10:44:49.848Z,34.08
2018-07-03T10:45:49.856Z,34.10
2018-07-03T10:46:49.868Z,33.90
2018-07-03T10:47:49.992Z,33.68
2018-07-03T10:48:49.895Z,33.63
2018-07-03T10:49:49.884Z,33.78
2018-07-03T10:50:49.894Z,33.81
2018-07-03T10:51:49.904Z,33.97
2018-07-03T10:52:49.909Z,34.03
2018-07-03T10:53:49.924Z,33.66
2018-07-03T10:54:49.920Z,33.61
2018-07-03T10:55:49.923Z,33.66
2018-07-03T10:56:49.938Z,33.82
2018-07-03T10:57:49.954Z,34.21
2018-07-03T10:58:49.982Z,34.52
2018-07-03T10:59:50.022Z,34.59
2018-07-03T11:00:49.966Z,34.80
2018-07-03T11:01:49.981Z,34.72
2018-07-03T11:02:49.976Z,34.50
2018-07-03T11:03:49.977Z,34.43
2018-07-03T11:04:50.028Z,34.08
2018-07-03T11:05:50.004Z,33.63
2018-07-03T11:06:50.012Z,32.99
2018-07-03T11:07:50.024Z,32.44
2018-07-03T11:08:50.012Z,32.03
2018-07-03T11:09:50.056Z,31.81
2018-07-03T11:10:50.026Z,31.50
2018-07-03T11:11:50.026Z,31.25
2018-07-03T11:12:50.029Z,31.10
2018-07-03T11:13:50.068Z,30.94
2018-07-03T11:14:50.104Z,30.84
2018-07-03T11:15:50.056Z,30.65
2018-07-03T11:16:50.055Z,30.61
2018-07-03T11:17:50.051Z,30.54
2018-07-03T11:18:50.066Z,30.64
2018-07-03T11:19:50.193Z,30.62
2018-07-03T11:20:50.205Z,30.91
2018-07-03T11:21:50.075Z,31.13
2018-07-03T11:22:50.082Z,31.39
2018-07-03T11:23:50.082Z,31.76
2018-07-03T11:24:50.082Z,31.99
2018-07-03T11:25:50.088Z,32.13
2018-07-03T11:26:50.122Z,32.15
2018-07-03T11:27:50.087Z,32.04
2018-07-03T11:28:50.138Z,32.01
2018-07-03T11:29:50.093Z,31.99
2018-07-03T11:30:50.141Z,31.84
2018-07-03T11:31:50.145Z,31.99
2018-07-03T11:32:50.118Z,32.03
2018-07-03T11:33:50.128Z,32.25
2018-07-03T11:34:50.126Z,32.38
2018-07-03T11:35:50.135Z,32.79
2018-07-03T11:36:50.143Z,33.16
2018-07-03T11:37:50.165Z,33.56
2018-07-03T11:38:50.145Z,33.71
2018-07-03T11:39:50.157Z,33.91
2018-07-03T11:40:50.153Z,34.10
2018-07-03T11:41:50.195Z,34.59
2018-07-03T11:42:50.181Z,34.94
2018-07-03T11:43:50.185Z,35.22
2018-07-03T11:44:50.231Z,35.45
2018-07-03T11:45:50.207Z,35.41
2018-07-03T11:46:50.307Z,35.07
2018-07-03T11:47:50.215Z,34.61
2018-07-03T11:48:50.231Z,33.94
2018-07-03T11:49:50.235Z,33.31
2018-07-03T11:50:50.241Z,32.85
2018-07-03T11:51:50.247Z,32.57
2018-07-03T11:52:50.604Z,32.26
2018-07-03T11:53:50.246Z,32.01
2018-07-03T11:54:50.265Z,31.48
2018-07-03T11:55:50.261Z,30.95
2018-07-03T11:56:50.250Z,30.64
2018-07-03T11:57:50.262Z,30.39
2018-07-03T11:58:50.287Z,30.10
2018-07-03T11:59:50.284Z,29.89
2018-07-03T12:00:50.275Z,29.71
2018-07-03T12:01:50.282Z,29.61
2018-07-03T12:02:50.275Z,29.37
2018-07-03T12:03:50.330Z,29.15
2018-07-03T12:04:50.287Z,29.12
2018-07-03T12:05:50.292Z,28.92
2018-07-03T12:06:50.285Z,28.73
2018-07-03T12:07:50.302Z,28.62
2018-07-03T12:08:50.286Z,28.62
2018-07-03T12:09:50.330Z,28.51
2018-07-03T12:10:50.321Z,28.49
2018-07-03T12:11:50.301Z,28.44
2018-07-03T12:12:50.302Z,28.34
2018-07-03T12:13:50.299Z,28.31
2018-07-03T12:14:50.742Z,28.29
2018-07-03T12:15:50.302Z,28.24
2018-07-03T12:16:50.312Z,28.17
2018-07-03T12:17:50.299Z,28.14
2018-07-03T12:18:50.291Z,28.14
2018-07-03T12:19:50.346Z,28.19
2018-07-03T12:20:50.298Z,28.14
2018-07-03T12:21:50.305Z,28.19
2018-07-03T12:22:50.294Z,28.19
2018-07-03T12:23:50.437Z,28.24
2018-07-03T12:24:50.292Z,28.22
2018-07-03T12:25:50.292Z,28.29
2018-07-03T12:26:50.301Z,28.25
2018-07-03T12:27:50.301Z,28.22
2018-07-03T12:28:50.330Z,28.18
2018-07-03T12:29:50.336Z,28.21
2018-07-03T12:30:50.304Z,28.12
2018-07-03T12:31:50.311Z,28.04
2018-07-03T12:32:50.291Z,27.81
2018-07-03T12:33:50.331Z,27.78
2018-07-03T12:34:50.333Z,27.79
2018-07-03T12:35:50.292Z,27.78
2018-07-03T12:36:50.307Z,27.74
2018-07-03T12:37:50.332Z,27.59
2018-07-03T12:38:50.294Z,27.39
2018-07-03T12:39:50.285Z,27.39
2018-07-03T12:40:50.299Z,27.24
2018-07-03T12:41:50.295Z,27.24
2018-07-03T12:42:50.352Z,27.27
2018-07-03T12:43:50.300Z,27.29
2018-07-03T12:44:50.286Z,27.34
2018-07-03T12:45:50.291Z,27.39
2018-07-03T12:46:50.290Z,27.34
2018-07-03T12:47:50.280Z,27.43
2018-07-03T12:48:50.296Z,27.43
2018-07-03T12:49:50.394Z,27.50
2018-07-03T12:50:50.286Z,27.65
2018-07-03T12:51:50.298Z,27.60
2018-07-03T12:52:50.276Z,27.55